sensor_id;sensor_type;location;lat;lon;timestamp;pressure;altitude;pressure_sealevel;temperature;humidity
80629;BME280;69983;42.370;-71.210;2023-08-20T00:00:49;101168.05;;;26.13;23.33
80629;BME280;69983;42.370;-71.210;2023-08-20T00:02:51;101167.86;;;26.30;23.29
80629;BME280;69983;42.370;-71.210;2023-08-20T00:04:50;101170.09;;;25.03;23.79
80629;BME280;69983;42.370;-71.210;2023-08-20T00:06:50;101172.90;;;25.28;23.58
80629;BME280;69983;42.370;-71.210;2023-08-20T00:08:50;101177.90;;;24.52;23.75
80629;BME280;69983;42.370;-71.210;2023-08-20T00:10:50;101180.86;;;24.74;23.53
80629;BME280;69983;42.370;-71.210;2023-08-20T00:12:50;101185.63;;;24.82;23.31
80629;BME280;69983;42.370;-71.210;2023-08-20T00:14:55;101187.12;;;25.79;23.04
80629;BME280;69983;42.370;-71.210;2023-08-20T00:16:51;101188.73;;;25.76;23.13
80629;BME280;69983;42.370;-71.210;2023-08-20T00:18:52;101195.51;;;25.65;23.25
80629;BME280;69983;42.370;-71.210;2023-08-20T00:20:52;101198.79;;;25.92;23.31
80629;BME280;69983;42.370;-71.210;2023-08-20T00:22:52;101206.37;;;25.74;23.36
80629;BME280;69983;42.370;-71.210;2023-08-20T00:24:54;101216.00;;;26.16;23.24
80629;BME280;69983;42.370;-71.210;2023-08-20T00:26:53;101224.04;;;25.95;23.46
80629;BME280;69983;42.370;-71.210;2023-08-20T00:28:53;101228.04;;;25.40;23.53
80629;BME280;69983;42.370;-71.210;2023-08-20T00:30:53;101227.92;;;24.99;23.54
80629;BME280;69983;42.370;-71.210;2023-08-20T00:32:54;101230.93;;;24.99;23.55
80629;BME280;69983;42.370;-71.210;2023-08-20T00:34:54;101231.21;;;24.85;23.60
80629;BME280;69983;42.370;-71.210;2023-08-20T00:36:54;101232.58;;;25.64;23.28
80629;BME280;69983;42.370;-71.210;2023-08-20T00:38:55;101233.11;;;25.57;23.26
80629;BME280;69983;42.370;-71.210;2023-08-20T00:40:55;101231.29;;;25.70;23.28
80629;BME280;69983;42.370;-71.210;2023-08-20T00:42:55;101231.46;;;25.68;23.25
80629;BME280;69983;42.370;-71.210;2023-08-20T00:44:55;101230.92;;;25.80;23.15
80629;BME280;69983;42.370;-71.210;2023-08-20T00:46:56;101229.80;;;26.12;23.23
80629;BME280;69983;42.370;-71.210;2023-08-20T00:48:57;101230.54;;;25.82;23.43
80629;BME280;69983;42.370;-71.210;2023-08-20T00:50:57;101236.02;;;25.22;23.37
80629;BME280;69983;42.370;-71.210;2023-08-20T00:52:57;101238.65;;;24.57;23.84
80629;BME280;69983;42.370;-71.210;2023-08-20T00:54:58;101241.43;;;24.81;23.37
80629;BME280;69983;42.370;-71.210;2023-08-20T00:56:59;101246.25;;;25.28;23.44
80629;BME280;69983;42.370;-71.210;2023-08-20T00:58:59;101250.57;;;25.43;23.24
80629;BME280;69983;42.370;-71.210;2023-08-20T01:00:59;101252.60;;;25.61;23.19
80629;BME280;69983;42.370;-71.210;2023-08-20T01:02:59;101252.92;;;25.78;23.18
80629;BME280;69983;42.370;-71.210;2023-08-20T01:05:01;101253.29;;;25.49;23.34
80629;BME280;69983;42.370;-71.210;2023-08-20T01:09:14;101259.22;;;25.84;23.22
80629;BME280;69983;42.370;-71.210;2023-08-20T01:11:12;101262.75;;;25.46;23.38
80629;BME280;69983;42.370;-71.210;2023-08-20T01:13:02;101267.68;;;25.00;23.76
80629;BME280;69983;42.370;-71.210;2023-08-20T01:15:02;101270.82;;;24.10;24.04
80629;BME280;69983;42.370;-71.210;2023-08-20T01:17:03;101265.49;;;24.83;23.52
80629;BME280;69983;42.370;-71.210;2023-08-20T01:19:03;101268.00;;;24.93;23.44
80629;BME280;69983;42.370;-71.210;2023-08-20T01:25:16;101261.43;;;25.66;23.18
80629;BME280;69983;42.370;-71.210;2023-08-20T01:27:19;101261.70;;;25.47;23.25
80629;BME280;69983;42.370;-71.210;2023-08-20T01:29:06;101267.21;;;26.11;23.15
80629;BME280;69983;42.370;-71.210;2023-08-20T01:31:08;101266.70;;;25.48;23.37
80629;BME280;69983;42.370;-71.210;2023-08-20T01:33:07;101271.19;;;25.77;23.35
80629;BME280;69983;42.370;-71.210;2023-08-20T01:35:07;101274.61;;;25.88;23.35
80629;BME280;69983;42.370;-71.210;2023-08-20T01:37:06;101275.89;;;25.59;23.42
80629;BME280;69983;42.370;-71.210;2023-08-20T01:39:07;101278.56;;;25.73;23.38
80629;BME280;69983;42.370;-71.210;2023-08-20T01:41:07;101281.13;;;25.81;23.45
80629;BME280;69983;42.370;-71.210;2023-08-20T01:43:07;101281.13;;;25.91;23.39
80629;BME280;69983;42.370;-71.210;2023-08-20T01:45:08;101277.36;;;25.91;23.43
80629;BME280;69983;42.370;-71.210;2023-08-20T01:47:08;101274.97;;;26.00;23.39
80629;BME280;69983;42.370;-71.210;2023-08-20T01:49:09;101276.41;;;26.22;23.40
80629;BME280;69983;42.370;-71.210;2023-08-20T01:51:09;101276.95;;;25.77;23.21
80629;BME280;69983;42.370;-71.210;2023-08-20T01:53:10;101276.88;;;25.26;23.25
80629;BME280;69983;42.370;-71.210;2023-08-20T01:55:11;101276.16;;;25.47;23.02
80629;BME280;69983;42.370;-71.210;2023-08-20T01:57:10;101272.14;;;24.77;23.40
80629;BME280;69983;42.370;-71.210;2023-08-20T01:59:11;101274.08;;;25.48;23.01
80629;BME280;69983;42.370;-71.210;2023-08-20T02:01:11;101274.34;;;25.73;22.71
80629;BME280;69983;42.370;-71.210;2023-08-20T02:03:11;101278.46;;;25.90;22.65
80629;BME280;69983;42.370;-71.210;2023-08-20T02:05:12;101277.71;;;26.17;22.54
80629;BME280;69983;42.370;-71.210;2023-08-20T02:07:12;101277.53;;;26.26;22.57
80629;BME280;69983;42.370;-71.210;2023-08-20T02:09:12;101276.20;;;26.43;22.51
80629;BME280;69983;42.370;-71.210;2023-08-20T02:11:12;101275.03;;;26.39;22.63
80629;BME280;69983;42.370;-71.210;2023-08-20T02:13:12;101271.49;;;26.32;22.64
80629;BME280;69983;42.370;-71.210;2023-08-20T02:15:13;101274.64;;;26.64;22.66
80629;BME280;69983;42.370;-71.210;2023-08-20T02:17:13;101276.17;;;26.28;22.79
80629;BME280;69983;42.370;-71.210;2023-08-20T02:19:13;101279.58;;;26.20;22.86
80629;BME280;69983;42.370;-71.210;2023-08-20T02:21:13;101281.24;;;25.54;22.89
80629;BME280;69983;42.370;-71.210;2023-08-20T02:23:14;101279.74;;;25.14;22.95
80629;BME280;69983;42.370;-71.210;2023-08-20T02:25:15;101279.90;;;25.35;22.89
80629;BME280;69983;42.370;-71.210;2023-08-20T02:27:15;101279.61;;;25.82;22.80
80629;BME280;69983;42.370;-71.210;2023-08-20T02:29:16;101284.68;;;25.86;22.69
80629;BME280;69983;42.370;-71.210;2023-08-20T02:31:17;101287.82;;;26.11;22.76
80629;BME280;69983;42.370;-71.210;2023-08-20T02:33:17;101288.40;;;25.87;22.88
80629;BME280;69983;42.370;-71.210;2023-08-20T02:35:18;101287.94;;;26.04;22.82
80629;BME280;69983;42.370;-71.210;2023-08-20T02:37:18;101288.13;;;26.36;22.85
80629;BME280;69983;42.370;-71.210;2023-08-20T02:39:21;101288.92;;;26.35;22.77
80629;BME280;69983;42.370;-71.210;2023-08-20T02:41:19;101286.71;;;26.49;22.70
80629;BME280;69983;42.370;-71.210;2023-08-20T02:43:19;101286.96;;;26.54;22.76
80629;BME280;69983;42.370;-71.210;2023-08-20T02:45:19;101288.04;;;26.56;22.80
80629;BME280;69983;42.370;-71.210;2023-08-20T02:47:20;101292.24;;;26.56;22.85
80629;BME280;69983;42.370;-71.210;2023-08-20T02:49:20;101289.85;;;26.48;22.86
80629;BME280;69983;42.370;-71.210;2023-08-20T02:51:20;101288.21;;;25.97;22.99
80629;BME280;69983;42.370;-71.210;2023-08-20T02:53:21;101285.24;;;25.60;22.95
80629;BME280;69983;42.370;-71.210;2023-08-20T02:55:21;101286.12;;;25.23;23.05
80629;BME280;69983;42.370;-71.210;2023-08-20T02:57:21;101287.89;;;25.24;23.36
80629;BME280;69983;42.370;-71.210;2023-08-20T02:59:21;101288.82;;;25.88;22.66
80629;BME280;69983;42.370;-71.210;2023-08-20T03:01:22;101288.63;;;25.68;22.86
80629;BME280;69983;42.370;-71.210;2023-08-20T03:03:22;101287.01;;;25.91;22.74
80629;BME280;69983;42.370;-71.210;2023-08-20T03:05:22;101291.30;;;26.30;22.68
80629;BME280;69983;42.370;-71.210;2023-08-20T03:07:22;101294.70;;;25.99;22.90
80629;BME280;69983;42.370;-71.210;2023-08-20T03:09:23;101295.06;;;25.66;23.36
80629;BME280;69983;42.370;-71.210;2023-08-20T03:11:23;101297.61;;;25.40;23.10
80629;BME280;69983;42.370;-71.210;2023-08-20T03:13:24;101300.31;;;25.18;23.04
80629;BME280;69983;42.370;-71.210;2023-08-20T03:15:25;101301.18;;;25.05;23.14
80629;BME280;69983;42.370;-71.210;2023-08-20T03:17:25;101304.68;;;25.42;22.93
80629;BME280;69983;42.370;-71.210;2023-08-20T03:19:29;101304.52;;;25.66;22.83
80629;BME280;69983;42.370;-71.210;2023-08-20T03:21:26;101305.42;;;25.75;22.66
80629;BME280;69983;42.370;-71.210;2023-08-20T03:23:27;101306.67;;;26.03;22.72
80629;BME280;69983;42.370;-71.210;2023-08-20T03:25:27;101306.66;;;26.29;22.61
80629;BME280;69983;42.370;-71.210;2023-08-20T03:27:27;101308.34;;;26.11;22.64
80629;BME280;69983;42.370;-71.210;2023-08-20T03:29:27;101308.73;;;26.04;22.82
80629;BME280;69983;42.370;-71.210;2023-08-20T03:31:27;101310.59;;;26.12;22.85
80629;BME280;69983;42.370;-71.210;2023-08-20T03:33:27;101308.04;;;26.25;22.87
80629;BME280;69983;42.370;-71.210;2023-08-20T03:35:28;101305.60;;;25.97;23.08
80629;BME280;69983;42.370;-71.210;2023-08-20T03:37:29;101304.05;;;24.74;23.63
80629;BME280;69983;42.370;-71.210;2023-08-20T03:39:29;101307.64;;;24.50;23.58
80629;BME280;69983;42.370;-71.210;2023-08-20T03:41:29;101304.04;;;24.78;23.23
80629;BME280;69983;42.370;-71.210;2023-08-20T03:43:30;101304.70;;;25.06;23.07
80629;BME280;69983;42.370;-71.210;2023-08-20T03:45:31;101310.93;;;25.54;22.80
80629;BME280;69983;42.370;-71.210;2023-08-20T03:47:31;101312.16;;;25.77;22.75
80629;BME280;69983;42.370;-71.210;2023-08-20T03:49:32;101317.43;;;25.68;22.76
80629;BME280;69983;42.370;-71.210;2023-08-20T03:51:32;101320.84;;;26.17;22.64
80629;BME280;69983;42.370;-71.210;2023-08-20T03:53:32;101320.57;;;26.07;22.59
80629;BME280;69983;42.370;-71.210;2023-08-20T03:55:33;101323.71;;;25.99;22.77
80629;BME280;69983;42.370;-71.210;2023-08-20T03:57:33;101324.67;;;25.13;23.47
80629;BME280;69983;42.370;-71.210;2023-08-20T03:59:34;101327.29;;;25.57;23.00
80629;BME280;69983;42.370;-71.210;2023-08-20T04:01:34;101325.87;;;24.82;23.07
80629;BME280;69983;42.370;-71.210;2023-08-20T04:03:35;101323.76;;;24.87;23.21
80629;BME280;69983;42.370;-71.210;2023-08-20T04:05:36;101322.93;;;25.25;22.91
80629;BME280;69983;42.370;-71.210;2023-08-20T04:07:36;101324.27;;;25.57;22.77
80629;BME280;69983;42.370;-71.210;2023-08-20T04:09:37;101321.86;;;25.77;22.72
80629;BME280;69983;42.370;-71.210;2023-08-20T04:11:37;101321.49;;;25.66;22.65
80629;BME280;69983;42.370;-71.210;2023-08-20T04:13:38;101325.16;;;26.01;22.79
80629;BME280;69983;42.370;-71.210;2023-08-20T04:15:39;101322.31;;;26.17;22.67
80629;BME280;69983;42.370;-71.210;2023-08-20T04:17:39;101326.51;;;25.92;22.76
80629;BME280;69983;42.370;-71.210;2023-08-20T04:19:40;101329.71;;;25.58;22.94
80629;BME280;69983;42.370;-71.210;2023-08-20T04:21:40;101333.18;;;24.82;23.24
80629;BME280;69983;42.370;-71.210;2023-08-20T04:23:41;101338.68;;;24.60;23.20
80629;BME280;69983;42.370;-71.210;2023-08-20T04:25:41;101339.99;;;24.55;23.34
80629;BME280;69983;42.370;-71.210;2023-08-20T04:27:42;101336.14;;;25.24;22.81
80629;BME280;69983;42.370;-71.210;2023-08-20T04:29:43;101337.08;;;25.83;22.65
80629;BME280;69983;42.370;-71.210;2023-08-20T04:31:44;101338.58;;;25.69;22.65
80629;BME280;69983;42.370;-71.210;2023-08-20T04:33:46;101339.70;;;26.09;22.64
80629;BME280;69983;42.370;-71.210;2023-08-20T04:35:45;101340.61;;;25.97;22.64
80629;BME280;69983;42.370;-71.210;2023-08-20T04:37:45;101338.79;;;25.85;22.66
80629;BME280;69983;42.370;-71.210;2023-08-20T04:39:46;101339.96;;;25.99;22.65
80629;BME280;69983;42.370;-71.210;2023-08-20T04:41:47;101339.09;;;26.25;22.78
80629;BME280;69983;42.370;-71.210;2023-08-20T04:43:47;101337.84;;;25.57;22.72
80629;BME280;69983;42.370;-71.210;2023-08-20T04:45:47;101338.98;;;24.83;23.03
80629;BME280;69983;42.370;-71.210;2023-08-20T04:47:48;101343.78;;;24.47;23.13
80629;BME280;69983;42.370;-71.210;2023-08-20T04:49:48;101345.09;;;25.00;22.99
80629;BME280;69983;42.370;-71.210;2023-08-20T04:51:48;101348.24;;;25.48;22.65
80629;BME280;69983;42.370;-71.210;2023-08-20T04:53:49;101345.97;;;25.88;22.60
80629;BME280;69983;42.370;-71.210;2023-08-20T04:55:50;101345.73;;;25.47;22.73
80629;BME280;69983;42.370;-71.210;2023-08-20T04:57:51;101345.62;;;25.69;22.57
80629;BME280;69983;42.370;-71.210;2023-08-20T04:59:52;101346.92;;;25.61;22.65
80629;BME280;69983;42.370;-71.210;2023-08-20T05:01:51;101346.19;;;25.74;22.65
80629;BME280;69983;42.370;-71.210;2023-08-20T05:03:52;101344.59;;;25.77;22.75
80629;BME280;69983;42.370;-71.210;2023-08-20T05:05:52;101346.30;;;26.13;22.74
80629;BME280;69983;42.370;-71.210;2023-08-20T05:07:53;101343.75;;;25.77;22.98
80629;BME280;69983;42.370;-71.210;2023-08-20T05:09:53;101342.22;;;25.50;22.79
80629;BME280;69983;42.370;-71.210;2023-08-20T05:11:53;101343.27;;;25.44;22.54
80629;BME280;69983;42.370;-71.210;2023-08-20T05:13:55;101342.43;;;24.90;22.75
80629;BME280;69983;42.370;-71.210;2023-08-20T05:15:54;101338.43;;;25.54;22.64
80629;BME280;69983;42.370;-71.210;2023-08-20T05:17:54;101343.41;;;25.63;22.42
80629;BME280;69983;42.370;-71.210;2023-08-20T05:19:55;101347.15;;;25.73;22.26
80629;BME280;69983;42.370;-71.210;2023-08-20T05:21:56;101347.62;;;26.20;22.19
80629;BME280;69983;42.370;-71.210;2023-08-20T05:23:56;101349.24;;;25.95;22.30
80629;BME280;69983;42.370;-71.210;2023-08-20T05:25:57;101348.32;;;26.35;22.27
80629;BME280;69983;42.370;-71.210;2023-08-20T05:27:57;101349.53;;;26.20;22.31
80629;BME280;69983;42.370;-71.210;2023-08-20T05:29:58;101346.50;;;26.13;22.44
80629;BME280;69983;42.370;-71.210;2023-08-20T05:31:59;101344.72;;;25.63;22.54
80629;BME280;69983;42.370;-71.210;2023-08-20T05:33:59;101345.07;;;26.05;22.47
80629;BME280;69983;42.370;-71.210;2023-08-20T05:36:00;101343.31;;;26.36;22.55
80629;BME280;69983;42.370;-71.210;2023-08-20T05:37:59;101344.40;;;25.63;22.78
80629;BME280;69983;42.370;-71.210;2023-08-20T05:40:00;101343.21;;;25.33;22.68
80629;BME280;69983;42.370;-71.210;2023-08-20T05:42:00;101342.84;;;25.32;22.53
80629;BME280;69983;42.370;-71.210;2023-08-20T05:44:01;101345.34;;;25.19;22.58
80629;BME280;69983;42.370;-71.210;2023-08-20T05:46:01;101348.54;;;25.80;22.38
80629;BME280;69983;42.370;-71.210;2023-08-20T05:48:02;101341.31;;;26.06;22.33
80629;BME280;69983;42.370;-71.210;2023-08-20T05:50:02;101339.49;;;25.95;22.49
80629;BME280;69983;42.370;-71.210;2023-08-20T05:52:03;101336.35;;;25.95;22.40
80629;BME280;69983;42.370;-71.210;2023-08-20T05:54:03;101336.92;;;26.20;22.47
80629;BME280;69983;42.370;-71.210;2023-08-20T05:56:03;101335.72;;;26.24;22.44
80629;BME280;69983;42.370;-71.210;2023-08-20T05:58:05;101337.33;;;26.20;22.51
80629;BME280;69983;42.370;-71.210;2023-08-20T06:00:05;101338.79;;;26.06;22.46
80629;BME280;69983;42.370;-71.210;2023-08-20T06:02:05;101336.42;;;26.03;22.63
80629;BME280;69983;42.370;-71.210;2023-08-20T06:04:06;101334.55;;;26.11;22.65
80629;BME280;69983;42.370;-71.210;2023-08-20T06:06:06;101335.59;;;26.28;22.57
80629;BME280;69983;42.370;-71.210;2023-08-20T06:08:11;101335.31;;;26.67;22.54
80629;BME280;69983;42.370;-71.210;2023-08-20T06:10:08;101333.91;;;26.05;22.61
80629;BME280;69983;42.370;-71.210;2023-08-20T06:12:07;101332.13;;;25.67;22.43
80629;BME280;69983;42.370;-71.210;2023-08-20T06:14:08;101333.61;;;25.54;22.23
80629;BME280;69983;42.370;-71.210;2023-08-20T06:16:08;101331.83;;;25.63;22.47
80629;BME280;69983;42.370;-71.210;2023-08-20T06:18:08;101333.85;;;25.57;22.38
80629;BME280;69983;42.370;-71.210;2023-08-20T06:20:10;101335.17;;;26.01;22.35
80629;BME280;69983;42.370;-71.210;2023-08-20T06:22:09;101333.93;;;25.95;22.30
80629;BME280;69983;42.370;-71.210;2023-08-20T06:24:09;101334.32;;;26.07;22.29
80629;BME280;69983;42.370;-71.210;2023-08-20T06:26:10;101335.20;;;26.13;22.33
80629;BME280;69983;42.370;-71.210;2023-08-20T06:28:10;101334.95;;;25.93;22.37
80629;BME280;69983;42.370;-71.210;2023-08-20T06:30:11;101333.47;;;26.20;22.40
80629;BME280;69983;42.370;-71.210;2023-08-20T06:32:11;101336.07;;;25.84;22.37
80629;BME280;69983;42.370;-71.210;2023-08-20T06:34:11;101336.64;;;26.35;22.41
80629;BME280;69983;42.370;-71.210;2023-08-20T06:36:12;101339.74;;;26.20;22.44
80629;BME280;69983;42.370;-71.210;2023-08-20T06:38:12;101341.07;;;26.19;22.48
80629;BME280;69983;42.370;-71.210;2023-08-20T06:40:13;101344.48;;;26.40;22.51
80629;BME280;69983;42.370;-71.210;2023-08-20T06:42:13;101340.40;;;26.35;22.55
80629;BME280;69983;42.370;-71.210;2023-08-20T06:44:14;101341.39;;;25.81;22.62
80629;BME280;69983;42.370;-71.210;2023-08-20T06:46:14;101343.26;;;25.29;22.93
80629;BME280;69983;42.370;-71.210;2023-08-20T06:48:14;101343.86;;;25.36;22.80
80629;BME280;69983;42.370;-71.210;2023-08-20T06:50:14;101345.10;;;25.41;22.55
80629;BME280;69983;42.370;-71.210;2023-08-20T06:52:15;101349.39;;;25.85;22.55
80629;BME280;69983;42.370;-71.210;2023-08-20T06:54:15;101346.26;;;25.71;22.55
80629;BME280;69983;42.370;-71.210;2023-08-20T06:56:16;101347.85;;;25.58;22.55
80629;BME280;69983;42.370;-71.210;2023-08-20T06:58:17;101349.76;;;26.04;22.46
80629;BME280;69983;42.370;-71.210;2023-08-20T07:00:17;101350.18;;;25.85;22.51
80629;BME280;69983;42.370;-71.210;2023-08-20T07:02:17;101348.50;;;26.21;22.51
80629;BME280;69983;42.370;-71.210;2023-08-20T07:04:18;101351.98;;;26.12;22.48
80629;BME280;69983;42.370;-71.210;2023-08-20T07:06:18;101354.86;;;25.99;22.63
80629;BME280;69983;42.370;-71.210;2023-08-20T07:08:18;101359.18;;;25.79;22.76
80629;BME280;69983;42.370;-71.210;2023-08-20T07:10:18;101358.10;;;25.73;22.63
80629;BME280;69983;42.370;-71.210;2023-08-20T07:12:19;101360.10;;;25.32;22.58
80629;BME280;69983;42.370;-71.210;2023-08-20T07:14:19;101367.13;;;24.96;22.47
80629;BME280;69983;42.370;-71.210;2023-08-20T07:16:19;101369.12;;;25.37;22.45
80629;BME280;69983;42.370;-71.210;2023-08-20T07:18:20;101369.09;;;25.69;22.34
80629;BME280;69983;42.370;-71.210;2023-08-20T07:20:20;101369.85;;;25.62;22.50
80629;BME280;69983;42.370;-71.210;2023-08-20T07:22:20;101369.25;;;25.83;22.43
80629;BME280;69983;42.370;-71.210;2023-08-20T07:24:21;101371.70;;;25.75;22.42
80629;BME280;69983;42.370;-71.210;2023-08-20T07:26:21;101371.61;;;25.85;22.48
80629;BME280;69983;42.370;-71.210;2023-08-20T07:28:21;101373.01;;;25.95;22.47
80629;BME280;69983;42.370;-71.210;2023-08-20T07:30:21;101375.28;;;25.89;22.60
80629;BME280;69983;42.370;-71.210;2023-08-20T07:32:22;101374.65;;;26.02;22.55
80629;BME280;69983;42.370;-71.210;2023-08-20T07:34:22;101379.86;;;26.04;22.61
80629;BME280;69983;42.370;-71.210;2023-08-20T07:36:24;101380.45;;;25.03;22.58
80629;BME280;69983;42.370;-71.210;2023-08-20T07:38:24;101379.31;;;24.24;22.42
80629;BME280;69983;42.370;-71.210;2023-08-20T07:40:25;101381.44;;;24.74;21.67
80629;BME280;69983;42.370;-71.210;2023-08-20T07:42:25;101382.77;;;24.41;21.48
80629;BME280;69983;42.370;-71.210;2023-08-20T07:44:25;101383.23;;;24.69;21.45
80629;BME280;69983;42.370;-71.210;2023-08-20T07:46:25;101385.36;;;26.24;21.07
80629;BME280;69983;42.370;-71.210;2023-08-20T07:48:25;101387.20;;;26.59;21.39
80629;BME280;69983;42.370;-71.210;2023-08-20T07:50:26;101387.48;;;26.17;21.79
80629;BME280;69983;42.370;-71.210;2023-08-20T07:52:26;101387.05;;;26.01;22.00
80629;BME280;69983;42.370;-71.210;2023-08-20T07:54:27;101387.72;;;26.02;22.25
80629;BME280;69983;42.370;-71.210;2023-08-20T07:56:28;101384.75;;;26.22;22.18
80629;BME280;69983;42.370;-71.210;2023-08-20T07:58:29;101385.61;;;25.99;22.42
80629;BME280;69983;42.370;-71.210;2023-08-20T08:00:30;101383.86;;;26.15;22.56
80629;BME280;69983;42.370;-71.210;2023-08-20T08:02:29;101384.56;;;26.04;22.70
80629;BME280;69983;42.370;-71.210;2023-08-20T08:04:30;101384.63;;;25.89;22.71
80629;BME280;69983;42.370;-71.210;2023-08-20T08:06:30;101380.71;;;26.02;22.78
80629;BME280;69983;42.370;-71.210;2023-08-20T08:08:30;101385.29;;;25.20;22.87
80629;BME280;69983;42.370;-71.210;2023-08-20T08:10:31;101383.53;;;25.13;22.83
80629;BME280;69983;42.370;-71.210;2023-08-20T08:12:31;101383.55;;;25.02;22.81
80629;BME280;69983;42.370;-71.210;2023-08-20T08:14:32;101382.85;;;25.10;22.86
80629;BME280;69983;42.370;-71.210;2023-08-20T08:16:33;101388.39;;;25.08;22.78
80629;BME280;69983;42.370;-71.210;2023-08-20T08:18:32;101381.85;;;25.23;22.74
80629;BME280;69983;42.370;-71.210;2023-08-20T08:20:33;101380.10;;;25.38;22.72
80629;BME280;69983;42.370;-71.210;2023-08-20T08:22:33;101378.35;;;25.47;22.71
80629;BME280;69983;42.370;-71.210;2023-08-20T08:24:33;101382.13;;;25.48;22.78
80629;BME280;69983;42.370;-71.210;2023-08-20T08:26:34;101385.36;;;25.66;22.70
80629;BME280;69983;42.370;-71.210;2023-08-20T08:28:33;101385.74;;;25.70;22.74
80629;BME280;69983;42.370;-71.210;2023-08-20T08:30:34;101385.79;;;25.68;22.81
80629;BME280;69983;42.370;-71.210;2023-08-20T08:32:33;101387.66;;;25.68;22.85
80629;BME280;69983;42.370;-71.210;2023-08-20T08:34:33;101385.47;;;25.45;22.91
80629;BME280;69983;42.370;-71.210;2023-08-20T08:36:33;101388.85;;;25.57;22.87
80629;BME280;69983;42.370;-71.210;2023-08-20T08:38:34;101391.45;;;25.70;22.99
80629;BME280;69983;42.370;-71.210;2023-08-20T08:40:34;101392.51;;;25.57;22.97
80629;BME280;69983;42.370;-71.210;2023-08-20T08:42:34;101393.61;;;25.62;22.98
80629;BME280;69983;42.370;-71.210;2023-08-20T08:44:34;101396.43;;;25.73;23.14
80629;BME280;69983;42.370;-71.210;2023-08-20T08:46:37;101400.26;;;25.89;23.07
80629;BME280;69983;42.370;-71.210;2023-08-20T08:48:35;101399.30;;;25.58;23.16
80629;BME280;69983;42.370;-71.210;2023-08-20T08:50:35;101401.03;;;25.81;23.24
80629;BME280;69983;42.370;-71.210;2023-08-20T08:52:36;101403.35;;;25.59;23.29
80629;BME280;69983;42.370;-71.210;2023-08-20T08:54:36;101405.45;;;25.74;23.40
80629;BME280;69983;42.370;-71.210;2023-08-20T08:56:35;101409.44;;;25.88;23.36
80629;BME280;69983;42.370;-71.210;2023-08-20T08:58:35;101415.76;;;25.67;23.42
80629;BME280;69983;42.370;-71.210;2023-08-20T09:00:36;101418.23;;;25.39;23.37
80629;BME280;69983;42.370;-71.210;2023-08-20T09:02:35;101421.41;;;24.96;23.29
80629;BME280;69983;42.370;-71.210;2023-08-20T09:04:37;101425.03;;;24.54;23.24
80629;BME280;69983;42.370;-71.210;2023-08-20T09:06:45;101424.35;;;24.98;23.29
80629;BME280;69983;42.370;-71.210;2023-08-20T09:08:36;101427.22;;;24.91;23.22
80629;BME280;69983;42.370;-71.210;2023-08-20T09:10:37;101431.70;;;25.28;23.21
80629;BME280;69983;42.370;-71.210;2023-08-20T09:12:36;101436.96;;;25.16;23.25
80629;BME280;69983;42.370;-71.210;2023-08-20T09:14:36;101439.23;;;25.28;23.23
80629;BME280;69983;42.370;-71.210;2023-08-20T09:16:36;101440.37;;;25.26;23.31
80629;BME280;69983;42.370;-71.210;2023-08-20T09:18:39;101444.21;;;25.33;23.35
80629;BME280;69983;42.370;-71.210;2023-08-20T09:20:37;101445.50;;;25.57;23.38
80629;BME280;69983;42.370;-71.210;2023-08-20T09:22:37;101449.80;;;25.37;23.43
80629;BME280;69983;42.370;-71.210;2023-08-20T09:24:40;101449.42;;;25.43;23.43
80629;BME280;69983;42.370;-71.210;2023-08-20T09:26:36;101451.88;;;25.47;23.44
80629;BME280;69983;42.370;-71.210;2023-08-20T09:28:42;101456.32;;;25.66;23.52
80629;BME280;69983;42.370;-71.210;2023-08-20T09:30:37;101460.27;;;25.52;23.47
80629;BME280;69983;42.370;-71.210;2023-08-20T09:32:37;101465.76;;;25.50;23.55
80629;BME280;69983;42.370;-71.210;2023-08-20T09:34:38;101467.05;;;25.58;23.54
80629;BME280;69983;42.370;-71.210;2023-08-20T09:36:37;101470.14;;;25.79;23.61
80629;BME280;69983;42.370;-71.210;2023-08-20T09:38:37;101470.17;;;25.32;23.61
80629;BME280;69983;42.370;-71.210;2023-08-20T09:40:37;101470.44;;;25.33;23.65
80629;BME280;69983;42.370;-71.210;2023-08-20T09:42:37;101472.06;;;25.25;23.59
80629;BME280;69983;42.370;-71.210;2023-08-20T09:44:39;101472.56;;;25.04;23.54
80629;BME280;69983;42.370;-71.210;2023-08-20T09:46:38;101478.36;;;24.87;23.31
80629;BME280;69983;42.370;-71.210;2023-08-20T09:48:39;101477.66;;;24.70;23.54
80629;BME280;69983;42.370;-71.210;2023-08-20T09:50:38;101476.58;;;24.68;23.44
80629;BME280;69983;42.370;-71.210;2023-08-20T09:52:47;101477.64;;;24.78;23.45
80629;BME280;69983;42.370;-71.210;2023-08-20T09:54:49;101481.73;;;25.17;23.45
80629;BME280;69983;42.370;-71.210;2023-08-20T09:56:40;101482.70;;;24.96;23.51
80629;BME280;69983;42.370;-71.210;2023-08-20T09:58:39;101484.47;;;25.17;23.44
80629;BME280;69983;42.370;-71.210;2023-08-20T10:00:39;101484.52;;;25.37;23.52
80629;BME280;69983;42.370;-71.210;2023-08-20T10:02:39;101480.65;;;25.17;23.56
80629;BME280;69983;42.370;-71.210;2023-08-20T10:04:39;101478.93;;;25.21;23.61
80629;BME280;69983;42.370;-71.210;2023-08-20T10:06:39;101483.35;;;25.48;23.65
80629;BME280;69983;42.370;-71.210;2023-08-20T10:08:39;101486.78;;;25.54;23.66
80629;BME280;69983;42.370;-71.210;2023-08-20T10:10:39;101489.18;;;25.47;23.59
80629;BME280;69983;42.370;-71.210;2023-08-20T10:12:40;101490.97;;;25.62;23.72
80629;BME280;69983;42.370;-71.210;2023-08-20T10:14:39;101493.08;;;25.28;23.74
80629;BME280;69983;42.370;-71.210;2023-08-20T10:16:39;101489.94;;;25.17;23.53
80629;BME280;69983;42.370;-71.210;2023-08-20T10:18:39;101488.31;;;24.59;23.45